Time;durP1;ratioP1;P1;durP2;ratioP2;P2;SDS_P1;SDS_P2;PMS_P1;PMS_P2;Temp;Humidity;BMP_temperature;BMP_pressure;BME280_temperature;BME280_humidity;BME280_pressure;Samples;Min_cycle;Max_cycle;Signal;HPM_P1;HPM_P2
2022/07/18 00:01:58;;;;;;;10.70;6.90;;;;;;;11.89;100.00;99895.41;105185;1271;61499;-72
2022/07/18 00:04:25;;;;;;;8.40;5.60;;;;;;;11.86;100.00;99897.67;105216;1269;70303;-72
2022/07/18 00:06:52;;;;;;;8.80;6.20;;;;;;;11.84;100.00;99894.77;105304;1271;73880;-72
2022/07/18 00:09:19;;;;;;;8.70;6.00;;;;;;;11.82;100.00;99897.36;105202;1271;61371;-72
2022/07/18 00:11:45;;;;;;;10.00;6.70;;;;;;;11.81;100.00;99896.20;105197;1269;62183;-72
2022/07/18 00:14:12;;;;;;;8.40;6.70;;;;;;;11.80;100.00;99898.21;105220;1271;61494;-72
2022/07/18 00:16:37;;;;;;;8.30;6.30;;;;;;;11.80;100.00;99894.98;105199;1271;61377;-73
2022/07/18 00:19:05;;;;;;;7.40;6.00;;;;;;;11.80;100.00;99900.70;105231;1271;61329;-72
2022/07/18 00:21:32;;;;;;;7.70;6.60;;;;;;;11.79;100.00;99899.50;105235;1271;61354;-73
2022/07/18 00:23:59;;;;;;;8.60;6.40;;;;;;;11.79;100.00;99896.28;105223;1271;61969;-73
2022/07/18 00:26:25;;;;;;;7.50;6.00;;;;;;;11.79;100.00;99894.35;104988;1271;61256;-73
2022/07/18 00:28:51;;;;;;;8.00;6.30;;;;;;;11.77;100.00;99900.33;105231;1270;61480;-72
2022/07/18 00:31:17;;;;;;;7.60;6.60;;;;;;;11.74;100.00;99900.20;105212;1271;61330;-73
2022/07/18 00:33:44;;;;;;;7.80;6.00;;;;;;;11.70;100.00;99901.27;105231;1271;61236;-73
2022/07/18 00:36:11;;;;;;;7.60;6.30;;;;;;;11.63;100.00;99898.65;105217;1271;61385;-73
2022/07/18 00:38:36;;;;;;;7.00;5.90;;;;;;;11.56;100.00;99895.45;105024;1271;61352;-72
2022/07/18 00:41:04;;;;;;;8.10;6.00;;;;;;;11.52;100.00;99894.09;105184;1268;61284;-73
2022/07/18 00:43:30;;;;;;;7.00;5.90;;;;;;;11.49;100.00;99893.38;105224;1268;61392;-72
2022/07/18 00:45:56;;;;;;;6.70;5.90;;;;;;;11.42;100.00;99888.80;105217;1268;61224;-73
2022/07/18 00:48:23;;;;;;;6.40;5.20;;;;;;;11.35;100.00;99889.01;105205;1268;61365;-72
2022/07/18 00:50:49;;;;;;;6.40;5.50;;;;;;;11.29;100.00;99887.92;105219;1268;61388;-72
2022/07/18 00:53:15;;;;;;;7.90;6.20;;;;;;;11.25;100.00;99886.52;105178;1269;61387;-72
2022/07/18 00:55:44;;;;;;;8.60;6.20;;;;;;;11.23;100.00;99887.73;105310;1268;61394;-72
2022/07/18 00:58:11;;;;;;;8.40;6.30;;;;;;;11.19;100.00;99885.95;105087;1271;61427;-72
2022/07/18 01:03:25;;;;;;;8.50;6.30;;;;;;;11.13;100.00;99880.80;105009;1271;73558;-72
2022/07/18 01:05:51;;;;;;;6.70;6.10;;;;;;;11.10;100.00;99882.18;105203;1271;70261;-72
2022/07/18 01:08:17;;;;;;;7.10;6.40;;;;;;;11.09;100.00;99881.16;105200;1270;61380;-72
2022/07/18 01:10:43;;;;;;;7.50;6.30;;;;;;;11.09;100.00;99879.77;105189;1271;61400;-72
2022/07/18 01:13:09;;;;;;;8.50;7.50;;;;;;;11.08;100.00;99877.52;105210;1271;61128;-72
2022/07/18 01:15:36;;;;;;;7.30;5.90;;;;;;;11.08;100.00;99873.09;105007;1270;61388;-71
2022/07/18 01:18:03;;;;;;;8.40;6.70;;;;;;;11.07;100.00;99875.09;105219;1271;61390;-72
2022/07/18 01:20:31;;;;;;;6.70;5.80;;;;;;;11.06;100.00;99874.80;105256;1269;61295;-72
2022/07/18 01:22:58;;;;;;;7.20;6.20;;;;;;;11.03;100.00;99879.19;105160;1271;61149;-72
2022/07/18 01:25:26;;;;;;;9.60;7.30;;;;;;;11.01;100.00;99878.61;105211;1270;61789;-72
2022/07/18 01:27:52;;;;;;;9.60;6.50;;;;;;;10.99;100.00;99872.67;105295;1271;76248;-72
2022/07/18 01:30:18;;;;;;;10.40;7.50;;;;;;;10.96;100.00;99874.75;105200;1268;61260;-73
2022/07/18 01:32:45;;;;;;;10.40;7.80;;;;;;;10.94;100.00;99871.69;105225;1270;62396;-73
2022/07/18 01:35:11;;;;;;;9.90;7.90;;;;;;;10.90;100.00;99872.42;105085;1271;61576;-73
2022/07/18 01:37:37;;;;;;;10.10;7.50;;;;;;;10.88;100.00;99874.88;105222;1268;61266;-73
2022/07/18 01:40:10;;;;;;;11.00;7.70;;;;;;;10.86;100.00;99874.96;105234;1271;61278;-72
2022/07/18 01:42:36;;;;;;;9.90;8.00;;;;;;;10.84;100.00;99876.32;105086;1268;69398;-72
2022/07/18 01:45:03;;;;;;;11.90;8.60;;;;;;;10.82;100.00;99874.86;104947;1271;61399;-72
2022/07/18 01:47:29;;;;;;;8.60;7.40;;;;;;;10.80;100.00;99873.69;105206;1269;61298;-72
2022/07/18 01:49:55;;;;;;;8.90;7.40;;;;;;;10.79;100.00;99871.98;105200;1268;61301;-72
2022/07/18 01:52:21;;;;;;;10.10;7.70;;;;;;;10.78;100.00;99872.41;105214;1268;61390;-72
2022/07/18 01:54:48;;;;;;;11.60;7.80;;;;;;;10.75;100.00;99869.84;105196;1271;61289;-72
2022/07/18 01:57:14;;;;;;;10.10;7.70;;;;;;;10.72;100.00;99867.54;105198;1271;61394;-72
2022/07/18 01:59:39;;;;;;;11.60;7.60;;;;;;;10.70;100.00;99865.53;105256;1268;61426;-72
2022/07/18 02:02:06;;;;;;;11.20;8.10;;;;;;;10.66;100.00;99864.47;104976;1270;61557;-72
2022/07/18 02:07:16;;;;;;;8.90;7.50;;;;;;;10.60;100.00;99863.07;105244;1269;69670;-72
2022/07/18 02:09:43;;;;;;;7.40;6.70;;;;;;;10.56;100.00;99868.20;104959;1271;61289;-71
2022/07/18 02:12:09;;;;;;;11.20;7.30;;;;;;;10.52;100.00;99866.98;105229;1269;61376;-72
2022/07/18 02:14:34;;;;;;;9.20;7.10;;;;;;;10.50;100.00;99866.76;105217;1271;61380;-72
2022/07/18 02:17:01;;;;;;;8.50;6.20;;;;;;;10.46;100.00;99865.54;105202;1271;61137;-72
2022/07/18 02:19:27;;;;;;;6.90;6.00;;;;;;;10.39;100.00;99863.28;105170;1270;61358;-72
2022/07/18 02:21:52;;;;;;;8.70;6.40;;;;;;;10.30;100.00;99862.11;105202;1270;61541;-72
2022/07/18 02:24:19;;;;;;;7.00;6.40;;;;;;;10.26;100.00;99864.95;105202;1269;61308;-72
2022/07/18 02:26:45;;;;;;;7.70;6.60;;;;;;;10.26;100.00;99867.29;105248;1271;61431;-72
2022/07/18 02:29:10;;;;;;;7.90;7.20;;;;;;;10.25;100.00;99868.36;105213;1269;69479;-72
2022/07/18 02:31:37;;;;;;;8.80;6.40;;;;;;;10.26;100.00;99873.13;104890;1272;61502;-72
2022/07/18 02:34:09;;;;;;;9.70;6.40;;;;;;;10.27;100.00;99869.55;105185;1271;61390;-72
2022/07/18 02:36:37;;;;;;;8.60;6.50;;;;;;;10.29;100.00;99869.11;105203;1268;61282;-72
2022/07/18 02:39:05;;;;;;;11.40;6.30;;;;;;;10.30;100.00;99876.12;105258;1268;75410;-72
2022/07/18 02:41:31;;;;;;;10.40;6.90;;;;;;;10.31;100.00;99880.00;105201;1271;70326;-72
2022/07/18 02:43:57;;;;;;;9.70;7.40;;;;;;;10.31;100.00;99877.36;105191;1271;61421;-72
2022/07/18 02:46:24;;;;;;;8.10;6.70;;;;;;;10.30;100.00;99885.38;105191;1271;61413;-72
2022/07/18 02:48:50;;;;;;;9.40;6.70;;;;;;;10.31;100.00;99889.25;105191;1269;61290;-72
2022/07/18 02:51:16;;;;;;;7.50;6.60;;;;;;;10.32;100.00;99892.56;105224;1268;61186;-72
2022/07/18 02:53:42;;;;;;;9.30;6.90;;;;;;;10.33;100.00;99893.90;105234;1271;61355;-72
2022/07/18 02:56:08;;;;;;;7.90;6.10;;;;;;;10.35;100.00;99886.04;104882;1270;61702;-71
2022/07/18 02:58:34;;;;;;;8.50;6.10;;;;;;;10.35;100.00;99883.72;105191;1271;61303;-73
2022/07/18 03:01:01;;;;;;;8.10;6.00;;;;;;;10.36;100.00;99884.41;105239;1271;61397;-72
2022/07/18 03:03:27;;;;;;;6.10;5.50;;;;;;;10.35;100.00;99886.92;104939;1270;61409;-72
2022/07/18 03:05:53;;;;;;;6.80;5.60;;;;;;;10.32;100.00;99888.45;105207;1271;61258;-72
2022/07/18 03:08:19;;;;;;;8.60;6.50;;;;;;;10.30;100.00;99892.87;105048;1271;61754;-72
2022/07/18 03:10:45;;;;;;;7.60;6.80;;;;;;;10.28;100.00;99891.68;105233;1271;61371;-73
2022/07/18 03:13:12;;;;;;;10.30;6.00;;;;;;;10.31;100.00;99885.15;105215;1268;61393;-71
2022/07/18 03:15:39;;;;;;;7.90;6.60;;;;;;;10.37;100.00;99882.88;105242;1268;61403;-71
2022/07/18 03:18:05;;;;;;;6.90;6.20;;;;;;;10.43;100.00;99885.27;105215;1270;73419;-72
2022/07/18 03:20:32;;;;;;;8.40;7.30;;;;;;;10.49;100.00;99882.46;105191;1268;61265;-72
2022/07/18 03:22:58;;;;;;;7.40;5.70;;;;;;;10.56;100.00;99880.10;105278;1271;61252;-72
2022/07/18 03:25:25;;;;;;;11.00;6.30;;;;;;;10.66;100.00;99886.20;105174;1271;61279;-72
2022/07/18 03:27:51;;;;;;;8.00;5.90;;;;;;;10.75;100.00;99883.92;105008;1271;61361;-72
2022/07/18 03:30:18;;;;;;;6.90;5.70;;;;;;;10.86;100.00;99886.36;104908;1271;61465;-72
2022/07/18 03:32:44;;;;;;;8.70;5.70;;;;;;;11.06;100.00;99885.81;104999;1271;61371;-72
2022/07/18 03:35:10;;;;;;;7.70;5.70;;;;;;;11.49;100.00;99892.14;105212;1271;61387;-72
2022/07/18 03:37:36;;;;;;;8.10;6.20;;;;;;;11.80;100.00;99889.49;105208;1271;61398;-71
2022/07/18 03:40:04;;;;;;;8.80;5.00;;;;;;;12.05;100.00;99890.55;105209;1271;61391;-71
2022/07/18 03:42:30;;;;;;;6.30;5.60;;;;;;;12.28;100.00;99893.48;104913;1271;61474;-71
2022/07/18 03:44:56;;;;;;;7.50;5.80;;;;;;;12.65;100.00;99900.48;105213;1270;61838;-72
2022/07/18 03:47:22;;;;;;;7.60;5.60;;;;;;;13.21;100.00;99895.41;105238;1271;61268;-72
2022/07/18 03:49:49;;;;;;;7.10;5.60;;;;;;;13.85;100.00;99899.36;105193;1271;61380;-71
2022/07/18 03:52:14;;;;;;;7.00;5.90;;;;;;;14.53;100.00;99897.13;105186;1271;61370;-71
2022/07/18 03:54:40;;;;;;;7.40;6.00;;;;;;;15.37;100.00;99896.77;105210;1270;61375;-71
2022/07/18 03:57:07;;;;;;;5.90;4.80;;;;;;;16.30;100.00;99894.33;105206;1271;61348;-71
2022/07/18 03:59:33;;;;;;;5.20;4.70;;;;;;;17.15;100.00;99899.91;104956;1271;61196;-72
2022/07/18 04:01:59;;;;;;;7.00;4.70;;;;;;;17.96;100.00;99908.26;105241;1271;61370;-71
2022/07/18 04:04:25;;;;;;;7.80;4.70;;;;;;;18.56;100.00;99905.78;105234;1269;61404;-71
2022/07/18 04:06:51;;;;;;;5.00;3.90;;;;;;;19.12;100.00;99905.23;104917;1271;61291;-71
2022/07/18 04:09:17;;;;;;;5.20;4.60;;;;;;;19.40;100.00;99907.33;105216;1271;61374;-72
2022/07/18 04:11:43;;;;;;;5.00;4.00;;;;;;;19.53;99.97;99905.41;105242;1271;61246;-72
2022/07/18 04:14:09;;;;;;;5.90;4.30;;;;;;;19.85;99.04;99903.42;105297;1271;61386;-72
2022/07/18 04:16:35;;;;;;;6.00;4.40;;;;;;;20.25;96.65;99906.27;105481;1271;61246;-72
2022/07/18 04:19:01;;;;;;;5.20;4.50;;;;;;;20.68;94.35;99907.71;105521;1271;61415;-71
2022/07/18 04:21:27;;;;;;;4.50;4.10;;;;;;;21.09;90.87;99902.91;105657;1268;61284;-71
2022/07/18 04:23:53;;;;;;;5.80;4.50;;;;;;;21.36;88.57;99901.67;105543;1268;61137;-71
2022/07/18 04:26:20;;;;;;;4.90;4.40;;;;;;;21.71;87.72;99898.17;105219;1268;61325;-71
2022/07/18 04:28:46;;;;;;;6.20;5.10;;;;;;;21.97;86.08;99898.45;105184;1271;61230;-71
2022/07/18 04:31:12;;;;;;;5.40;4.50;;;;;;;22.15;84.65;99893.78;105197;1268;61291;-71
2022/07/18 04:33:39;;;;;;;4.90;4.30;;;;;;;22.43;83.31;99894.19;105200;1268;61278;-71
2022/07/18 04:36:06;;;;;;;5.40;4.60;;;;;;;22.75;81.34;99893.46;104940;1269;61221;-72
2022/07/18 04:38:36;;;;;;;7.40;4.60;;;;;;;22.93;80.05;99892.63;105190;1268;74406;-72
2022/07/18 04:41:05;;;;;;;6.60;3.90;;;;;;;22.76;78.68;99891.67;105229;1268;61355;-72
2022/07/18 04:43:32;;;;;;;5.90;4.00;;;;;;;22.71;77.82;99894.59;105213;1268;61814;-72
2022/07/18 04:45:58;;;;;;;5.20;4.40;;;;;;;22.85;77.19;99894.38;105205;1268;61293;-72
2022/07/18 04:48:26;;;;;;;6.60;4.50;;;;;;;22.88;76.51;99892.09;105208;1269;61379;-72
2022/07/18 04:50:52;;;;;;;4.80;3.60;;;;;;;22.82;75.39;99895.95;105167;1268;73305;-72
2022/07/18 04:53:18;;;;;;;3.90;3.40;;;;;;;22.68;75.09;99900.13;105207;1268;61367;-72
2022/07/18 04:55:44;;;;;;;5.40;3.80;;;;;;;22.58;74.35;99898.27;105224;1268;61386;-72
2022/07/18 04:58:10;;;;;;;6.80;3.80;;;;;;;22.62;73.88;99904.34;105199;1268;61272;-71
2022/07/18 05:00:37;;;;;;;6.30;4.00;;;;;;;22.77;72.90;99901.02;105225;1268;61271;-71
2022/07/18 05:03:03;;;;;;;4.30;3.40;;;;;;;22.99;72.62;99903.83;105181;1268;61393;-70
2022/07/18 05:05:29;;;;;;;3.90;3.30;;;;;;;23.41;71.92;99900.25;105239;1268;61278;-71
2022/07/18 05:07:55;;;;;;;4.40;3.60;;;;;;;23.76;71.16;99893.51;105196;1268;61370;-71
2022/07/18 05:10:23;;;;;;;4.30;3.30;;;;;;;24.03;69.91;99892.19;105196;1268;61320;-71
2022/07/18 05:12:51;;;;;;;6.20;3.50;;;;;;;24.29;68.84;99889.11;105224;1268;61329;-72
2022/07/18 05:15:20;;;;;;;3.90;2.90;;;;;;;24.56;68.03;99889.05;105221;1268;74401;-72
2022/07/18 05:17:46;;;;;;;4.90;3.20;;;;;;;24.77;67.22;99886.40;104916;1270;61200;-72
2022/07/18 05:20:15;;;;;;;8.20;2.80;;;;;;;24.97;66.72;99883.83;105233;1268;62010;-71
2022/07/18 05:22:42;;;;;;;4.40;2.70;;;;;;;25.15;66.14;99878.63;105279;1268;76424;-71
2022/07/18 05:25:09;;;;;;;3.80;2.80;;;;;;;25.39;65.13;99871.40;105207;1271;61297;-72
2022/07/18 05:27:36;;;;;;;5.90;2.70;;;;;;;25.34;64.71;99867.51;105239;1271;73368;-72
2022/07/18 05:30:07;;;;;;;4.70;3.30;;;;;;;25.27;64.46;99867.80;105245;1271;61250;-71
2022/07/18 05:32:34;;;;;;;3.90;3.00;;;;;;;25.29;63.95;99870.89;105371;1268;61572;-71
2022/07/18 05:35:00;;;;;;;3.60;2.40;;;;;;;25.11;63.52;99869.45;105203;1269;75419;-71
2022/07/18 05:37:27;;;;;;;5.70;3.20;;;;;;;25.16;63.30;99863.45;105182;1271;61358;-71
2022/07/18 05:39:53;;;;;;;3.30;2.50;;;;;;;25.42;62.45;99864.78;105205;1271;61371;-71
2022/07/18 05:42:20;;;;;;;5.20;2.90;;;;;;;25.59;61.22;99862.54;105228;1271;61265;-71
2022/07/18 05:44:46;;;;;;;3.20;2.40;;;;;;;25.75;60.42;99860.61;105220;1268;61259;-72
2022/07/18 05:47:13;;;;;;;3.80;2.30;;;;;;;25.87;59.85;99859.09;105191;1271;61282;-71
2022/07/18 05:49:40;;;;;;;3.20;2.70;;;;;;;26.08;59.36;99862.43;105190;1271;61345;-71
2022/07/18 05:52:07;;;;;;;4.80;2.80;;;;;;;26.28;58.34;99856.25;105191;1271;61263;-71
2022/07/18 05:54:32;;;;;;;3.50;2.30;;;;;;;26.34;57.60;99859.04;105230;1268;61300;-72
2022/07/18 05:56:59;;;;;;;2.60;2.20;;;;;;;26.41;56.05;99860.27;105211;1268;61226;-71
2022/07/18 05:59:25;;;;;;;5.80;2.50;;;;;;;26.27;53.84;99862.49;105195;1271;61388;-71
2022/07/18 06:01:51;;;;;;;3.10;2.20;;;;;;;26.17;54.53;99861.02;105219;1271;61413;-71
2022/07/18 06:04:18;;;;;;;3.50;2.30;;;;;;;25.83;50.43;99860.78;105207;1268;61306;-71
2022/07/18 06:06:44;;;;;;;3.80;1.80;;;;;;;25.16;50.30;99854.85;104972;1269;61534;-72
2022/07/18 06:09:12;;;;;;;4.60;2.70;;;;;;;25.25;50.74;99861.50;105227;1271;61249;-71
2022/07/18 06:11:38;;;;;;;3.80;2.20;;;;;;;25.43;50.85;99863.77;105301;1268;75387;-71
2022/07/18 06:14:04;;;;;;;4.80;2.80;;;;;;;25.64;50.49;99865.38;105274;1271;61336;-72
2022/07/18 06:16:31;;;;;;;3.50;2.30;;;;;;;25.74;50.26;99869.25;105214;1271;61250;-72
2022/07/18 06:18:58;;;;;;;3.40;2.30;;;;;;;25.83;50.33;99868.22;105262;1271;61384;-71
2022/07/18 06:21:24;;;;;;;5.90;2.50;;;;;;;25.92;50.60;99869.58;105226;1268;61348;-72
2022/07/18 06:23:51;;;;;;;4.20;2.30;;;;;;;26.14;49.87;99871.52;105257;1271;61353;-72
2022/07/18 06:26:17;;;;;;;5.60;2.30;;;;;;;26.06;49.58;99870.09;105282;1268;61231;-72
2022/07/18 06:28:43;;;;;;;3.20;2.10;;;;;;;25.97;48.18;99870.13;105269;1268;61273;-73
2022/07/18 06:31:11;;;;;;;4.10;2.10;;;;;;;25.95;48.71;99872.45;105295;1271;61311;-72
2022/07/18 06:33:37;;;;;;;5.90;2.10;;;;;;;25.95;48.58;99876.12;105342;1271;61278;-73
2022/07/18 06:36:05;;;;;;;8.30;2.90;;;;;;;26.10;48.65;99873.70;105244;1268;61258;-74
2022/07/18 06:38:32;;;;;;;4.20;2.10;;;;;;;26.06;47.75;99869.60;105276;1271;68297;-72
2022/07/18 06:40:58;;;;;;;4.80;2.60;;;;;;;25.95;47.38;99868.17;105224;1269;61268;-71
2022/07/18 06:43:24;;;;;;;4.10;2.30;;;;;;;26.01;48.05;99867.91;105630;1270;61289;-72
2022/07/18 06:45:52;;;;;;;4.10;2.30;;;;;;;26.15;48.28;99868.47;104966;1271;61164;-75
2022/07/18 06:48:18;;;;;;;5.00;2.50;;;;;;;26.26;48.46;99864.27;104988;1271;75285;-72
2022/07/18 06:50:44;;;;;;;5.50;2.50;;;;;;;26.20;47.56;99862.96;105271;1269;61253;-72
2022/07/18 06:53:11;;;;;;;4.30;2.50;;;;;;;26.26;48.52;99864.84;105343;1268;61159;-71
2022/07/18 06:55:37;;;;;;;6.00;2.20;;;;;;;26.44;48.30;99866.37;105231;1271;61290;-72
2022/07/18 06:58:03;;;;;;;6.30;3.10;;;;;;;26.41;48.00;99866.45;105268;1269;61596;-70
2022/07/18 07:00:29;;;;;;;8.00;2.70;;;;;;;26.48;47.97;99862.70;104941;1271;61416;-72
2022/07/18 07:02:55;;;;;;;7.20;3.60;;;;;;;26.50;47.18;99865.58;105224;1269;61263;-73
2022/07/18 07:05:22;;;;;;;5.90;2.70;;;;;;;26.29;46.46;99864.33;105208;1269;61295;-72
2022/07/18 07:07:48;;;;;;;6.30;3.30;;;;;;;25.92;46.47;99862.69;105295;1271;61381;-72
2022/07/18 07:10:16;;;;;;;5.00;2.30;;;;;;;25.84;47.63;99863.38;105199;1271;62246;-72
2022/07/18 07:12:48;;;;;;;10.60;3.10;;;;;;;25.82;46.33;99863.14;105028;1271;61263;-72
2022/07/18 07:15:17;;;;;;;6.20;2.40;;;;;;;25.54;45.56;99860.65;105245;1271;70517;-72
2022/07/18 07:17:43;;;;;;;;;;;;;;;25.14;45.48;99861.89;105066;1271;73290;-72
2022/07/18 07:20:10;;;;;;;3.70;2.40;;;;;;;24.84;46.04;99863.26;105229;1268;61317;-72
2022/07/18 07:23:06;;;;;;;5.80;2.80;;;;;;;24.70;46.42;99861.84;105249;1269;61260;-72
2022/07/18 07:25:33;;;;;;;4.30;2.20;;;;;;;24.81;46.73;99859.73;105202;1271;75468;-71
2022/07/18 07:28:00;;;;;;;7.70;2.70;;;;;;;24.72;46.04;99858.02;105278;1271;69987;-71
2022/07/18 07:30:26;;;;;;;5.50;2.00;;;;;;;24.49;46.62;99861.92;105200;1271;61262;-71
2022/07/18 07:32:52;;;;;;;4.60;2.40;;;;;;;24.33;47.57;99862.35;105224;1271;61375;-71
2022/07/18 07:35:20;;;;;;;6.30;2.10;;;;;;;24.25;48.27;99859.66;105245;1271;61271;-70
2022/07/18 07:37:49;;;;;;;4.40;2.30;;;;;;;24.03;47.30;99860.96;105043;1271;73647;-71
2022/07/18 07:40:16;;;;;;;3.90;2.50;;;;;;;23.75;47.27;99860.60;105320;1271;71201;-71
2022/07/18 07:42:43;;;;;;;5.20;2.50;;;;;;;23.57;47.80;99862.13;105236;1270;73501;-70
2022/07/18 07:45:11;;;;;;;5.50;2.60;;;;;;;23.46;48.12;99864.23;105278;1271;62795;-72
2022/07/18 07:47:37;;;;;;;4.60;2.50;;;;;;;23.39;47.97;99864.24;105114;1271;61531;-72
2022/07/18 07:50:08;;;;;;;4.30;2.50;;;;;;;23.33;47.70;99865.98;105239;1270;61338;-71
2022/07/18 07:52:34;;;;;;;3.30;1.90;;;;;;;23.19;48.53;99863.48;105258;1269;68271;-72
2022/07/18 07:55:00;;;;;;;3.80;1.80;;;;;;;23.24;49.35;99862.55;105175;1269;61284;-72
2022/07/18 07:57:27;;;;;;;3.60;1.90;;;;;;;23.31;48.62;99862.38;105232;1268;61318;-72
2022/07/18 07:59:53;;;;;;;3.30;2.00;;;;;;;23.33;48.22;99859.05;105242;1269;61285;-71
2022/07/18 08:02:19;;;;;;;5.20;2.10;;;;;;;23.36;47.22;99857.32;105202;1271;61422;-75
2022/07/18 08:04:45;;;;;;;9.50;2.30;;;;;;;23.25;46.49;99855.89;105250;1271;61282;-72
2022/07/18 08:07:11;;;;;;;5.10;2.00;;;;;;;23.26;48.11;99856.50;105249;1271;61278;-73
2022/07/18 08:09:38;;;;;;;4.80;2.10;;;;;;;23.37;47.00;99855.56;105222;1270;61342;-72
2022/07/18 08:12:05;;;;;;;5.30;2.00;;;;;;;23.34;46.53;99852.80;105007;1271;61375;-71
2022/07/18 08:14:33;;;;;;;6.00;2.30;;;;;;;23.36;47.52;99852.75;104886;1271;61396;-71
2022/07/18 08:16:59;;;;;;;3.30;1.90;;;;;;;23.49;48.07;99845.92;105214;1268;61252;-72
2022/07/18 08:19:27;;;;;;;6.40;1.80;;;;;;;23.61;48.01;99840.84;105250;1268;73288;-72
2022/07/18 08:21:53;;;;;;;4.80;2.30;;;;;;;23.70;47.28;99843.89;105200;1269;61266;-72
2022/07/18 08:24:19;;;;;;;4.40;2.10;;;;;;;23.80;47.05;99842.80;105225;1268;61296;-71
2022/07/18 08:26:45;;;;;;;4.20;1.90;;;;;;;23.87;47.37;99841.41;105247;1271;61262;-72
2022/07/18 08:29:11;;;;;;;4.40;2.20;;;;;;;24.02;47.57;99840.23;105200;1268;61416;-72
2022/07/18 08:31:37;;;;;;;4.60;1.80;;;;;;;24.16;47.66;99837.02;104926;1271;61311;-72
2022/07/18 08:34:04;;;;;;;3.30;1.70;;;;;;;24.20;47.67;99835.83;105197;1271;61367;-72
2022/07/18 08:36:30;;;;;;;4.60;1.60;;;;;;;24.29;47.02;99832.96;105261;1268;61375;-72
2022/07/18 08:38:55;;;;;;;4.50;1.70;;;;;;;24.25;44.84;99834.36;105245;1268;61294;-71
2022/07/18 08:41:23;;;;;;;3.40;1.80;;;;;;;24.13;44.67;99833.71;105001;1271;61485;-72
2022/07/18 08:43:50;;;;;;;1.80;1.40;;;;;;;24.10;44.27;99834.05;105137;1268;61343;-72
2022/07/18 08:46:20;;;;;;;4.70;1.90;;;;;;;24.03;43.38;99835.00;105303;1268;61246;-72
2022/07/18 08:48:49;;;;;;;4.60;1.80;;;;;;;23.96;44.51;99837.41;105352;1268;61263;-72
2022/07/18 08:51:16;;;;;;;12.20;2.70;;;;;;;24.07;44.27;99828.92;105203;1271;76292;-72
2022/07/18 08:53:43;;;;;;;4.30;2.00;;;;;;;24.14;42.28;99832.19;105312;1269;69198;-72
2022/07/18 08:56:09;;;;;;;4.10;1.70;;;;;;;24.11;42.44;99832.53;105209;1268;74522;-72
2022/07/18 08:58:35;;;;;;;5.90;2.10;;;;;;;24.24;42.96;99833.17;105240;1268;61368;-71
2022/07/18 09:01:02;;;;;;;6.70;2.00;;;;;;;24.36;42.69;99835.32;105233;1268;61406;-72
2022/07/18 09:03:29;;;;;;;5.20;2.40;;;;;;;24.47;43.09;99834.33;105233;1268;61285;-71
2022/07/18 09:06:10;;;;;;;4.80;2.00;;;;;;;24.57;42.82;99833.26;105257;1271;70049;-72
2022/07/18 09:08:57;;;;;;;3.80;1.90;;;;;;;24.56;41.68;99831.73;105499;1268;72828;-72
2022/07/18 09:11:24;;;;;;;15.80;5.10;;;;;;;24.56;42.65;99834.75;105639;1271;61383;-72
2022/07/18 09:13:51;;;;;;;4.90;1.90;;;;;;;24.59;41.33;99834.85;105580;1268;61334;-73
2022/07/18 09:16:17;;;;;;;16.40;3.30;;;;;;;24.54;41.11;99836.12;105174;1271;61354;-72
2022/07/18 09:18:46;;;;;;;51.10;10.80;;;;;;;24.45;40.51;99833.66;105222;1268;61377;-72
2022/07/18 09:21:15;;;;;;;16.00;4.90;;;;;;;24.44;40.17;99839.61;105288;1271;73527;-71
2022/07/18 09:23:48;;;;;;;4.70;1.90;;;;;;;24.36;40.04;99832.66;105249;1271;61370;-72
2022/07/18 09:26:33;;;;;;;10.40;3.10;;;;;;;24.28;39.54;99831.27;105325;1267;61858;-72
2022/07/18 09:29:00;;;;;;;5.20;1.60;;;;;;;24.20;39.79;99829.90;105138;1271;73330;-72
2022/07/18 09:31:26;;;;;;;4.00;1.60;;;;;;;24.19;40.49;99824.94;105216;1271;61344;-71
2022/07/18 09:33:57;;;;;;;3.60;1.60;;;;;;;24.29;41.23;99827.55;105210;1271;61384;-71
2022/07/18 09:36:24;;;;;;;3.70;1.80;;;;;;;24.47;40.46;99824.13;105351;1271;61288;-72
2022/07/18 09:38:51;;;;;;;4.70;1.40;;;;;;;24.56;41.52;99823.51;105244;1271;62420;-72
2022/07/18 09:41:23;;;;;;;4.70;1.50;;;;;;;24.79;42.30;99822.41;105322;1270;76352;-72
2022/07/18 09:43:49;;;;;;;4.30;2.10;;;;;;;25.00;42.16;99818.70;105199;1271;69188;-72
2022/07/18 09:46:15;;;;;;;3.00;1.60;;;;;;;25.10;41.85;99816.98;105007;1271;263760;-73
2022/07/18 09:48:42;;;;;;;5.70;1.70;;;;;;;25.16;41.87;99814.86;105216;1268;61269;-72
2022/07/18 09:51:09;;;;;;;3.50;1.50;;;;;;;25.24;41.25;99821.56;105205;1271;61294;-72
2022/07/18 09:53:37;;;;;;;6.60;1.80;;;;;;;25.26;40.24;99821.35;105835;1271;61191;-73
2022/07/18 09:56:09;;;;;;;8.60;1.80;;;;;;;25.29;40.26;99823.20;105209;1270;70247;-73
2022/07/18 09:58:49;;;;;;;5.10;1.60;;;;;;;25.32;40.88;99826.84;105197;1271;74551;-71
2022/07/18 10:01:16;;;;;;;2.20;1.50;;;;;;;25.37;40.20;99827.33;105084;1271;61422;-71
2022/07/18 10:03:42;;;;;;;5.40;1.70;;;;;;;25.31;40.00;99827.47;105252;1271;61232;-72
2022/07/18 10:06:09;;;;;;;3.20;1.70;;;;;;;25.29;40.04;99819.39;105235;1271;61397;-72
2022/07/18 10:08:36;;;;;;;2.30;1.50;;;;;;;25.32;39.39;99811.16;105008;1272;61285;-72
2022/07/18 10:11:05;;;;;;;3.00;1.70;;;;;;;25.39;39.36;99809.48;105255;1271;74393;-71
2022/07/18 10:13:33;;;;;;;2.00;1.50;;;;;;;25.52;39.71;99809.33;105267;1271;61531;-72
2022/07/18 10:16:00;;;;;;;14.10;2.20;;;;;;;25.60;39.04;99804.11;105267;1271;62075;-72
2022/07/18 10:18:29;;;;;;;2.80;1.80;;;;;;;25.46;38.37;99805.26;105226;1271;76794;-72
2022/07/18 10:20:59;;;;;;;3.50;1.80;;;;;;;25.39;39.59;99801.09;105305;1271;70369;-72
2022/07/18 10:23:43;;;;;;;5.00;1.70;;;;;;;25.47;39.58;99796.41;105225;1271;73297;-71
2022/07/18 10:26:23;;;;;;;2.70;1.70;;;;;;;25.52;39.68;99796.21;105003;1271;61328;-73
2022/07/18 10:28:56;;;;;;;3.10;1.70;;;;;;;25.56;39.90;99799.73;105226;1271;62070;-73
2022/07/18 10:31:31;;;;;;;3.50;2.00;;;;;;;25.63;39.88;99802.58;105270;1271;76388;-72
2022/07/18 10:34:07;;;;;;;2.80;1.60;;;;;;;25.56;39.13;99803.70;105336;1271;68937;-73
2022/07/18 10:36:54;;;;;;;4.50;1.70;;;;;;;25.50;39.25;99802.10;105235;1271;74169;-71
2022/07/18 10:39:31;;;;;;;4.30;1.50;;;;;;;25.58;39.78;99801.39;104807;1277;61208;-72
2022/07/18 10:42:02;;;;;;;3.90;1.60;;;;;;;25.74;39.57;99799.24;104551;1277;61368;-73
2022/07/18 10:44:28;;;;;;;4.00;1.70;;;;;;;25.78;39.44;99799.42;104823;1277;75514;-73
2022/07/18 10:47:08;;;;;;;2.20;1.40;;;;;;;25.84;39.23;99795.11;104789;1277;70499;-72
2022/07/18 10:49:57;;;;;;;2.30;1.60;;;;;;;25.94;39.71;99798.86;104848;1277;73656;-72
2022/07/18 10:52:26;;;;;;;2.90;1.80;;;;;;;25.88;39.08;99796.13;104849;1277;61340;-73
2022/07/18 10:55:22;;;;;;;3.10;1.40;;;;;;;25.89;39.36;99790.70;104855;1277;61538;-74
2022/07/18 10:57:52;;;;;;;4.60;1.90;;;;;;;25.96;39.57;99783.86;104821;1277;73167;-74
2022/07/18 11:00:35;;;;;;;;;;;;;;;26.09;39.71;99784.73;104951;1277;70413;-72
2022/07/18 11:03:01;;;;;;;3.40;1.60;;;;;;;26.17;39.84;99776.85;104837;1277;73846;-73
2022/07/18 11:05:29;;;;;;;3.70;1.60;;;;;;;26.20;38.89;99776.95;104823;1277;61472;-72
2022/07/18 11:07:59;;;;;;;3.90;1.60;;;;;;;26.19;39.68;99774.62;104974;1277;61468;-74
2022/07/18 11:10:44;;;;;;;2.50;1.70;;;;;;;26.19;38.41;99772.05;104793;1277;74184;-73
2022/07/18 11:13:27;;;;;;;2.70;1.40;;;;;;;26.02;37.17;99773.29;104818;1277;70341;-72
2022/07/18 11:16:32;;;;;;;3.60;1.80;;;;;;;25.94;37.32;99768.27;104829;1275;74369;-71
2022/07/18 11:18:58;;;;;;;3.00;1.50;;;;;;;25.80;36.27;99768.42;105192;1271;61256;-72
2022/07/18 11:21:24;;;;;;;3.30;1.50;;;;;;;25.70;36.25;99768.19;105230;1271;61282;-72
2022/07/18 11:23:54;;;;;;;2.40;1.50;;;;;;;25.71;36.71;99761.18;105226;1271;61298;-73
2022/07/18 11:26:22;;;;;;;4.00;1.80;;;;;;;25.78;36.88;99758.70;105180;1270;70353;-73
2022/07/18 11:29:00;;;;;;;2.40;1.70;;;;;;;25.81;36.72;99758.86;105305;1271;74517;-72
2022/07/18 11:31:28;;;;;;;3.00;1.60;;;;;;;25.79;36.12;99754.98;105228;1271;61265;-74